Time;durP1;ratioP1;P1;durP2;ratioP2;P2;SDS_P1;SDS_P2;PMS_P1;PMS_P2;Temp;Humidity;BMP_temperature;BMP_pressure;BME280_temperature;BME280_humidity;BME280_pressure;Samples;Min_cycle;Max_cycle;Signal;HPM_P1;HPM_P2
2021/07/22 00:02:15;;;;;;;24.10;18.83;;;;;;;18.25;65.18;100585.53;4981355;28;20112;-58
2021/07/22 00:04:59;;;;;;;28.85;18.95;;;;;;;18.24;65.54;100586.41;4981821;28;20557;-58
2021/07/22 00:07:45;;;;;;;;;;;;;;;18.20;65.46;100588.19;4982520;28;20531;-58
2021/07/22 00:10:41;;;;;;;24.02;19.27;;;;;;;18.18;65.44;100582.06;4981292;28;20304;-58
2021/07/22 00:13:32;;;;;;;24.55;18.92;;;;;;;18.19;65.54;100575.09;4981800;28;20115;-58
2021/07/22 00:16:25;;;;;;;26.67;19.63;;;;;;;18.17;65.72;100585.56;4981664;28;20413;-58
2021/07/22 00:19:09;;;;;;;25.30;19.30;;;;;;;18.17;65.63;100587.34;4981639;28;20057;-57
2021/07/22 00:21:53;;;;;;;24.35;18.70;;;;;;;18.17;65.58;100582.09;4981584;28;20046;-57
2021/07/22 00:24:51;;;;;;;24.80;18.75;;;;;;;18.14;65.66;100574.25;4996177;28;20076;-58
2021/07/22 00:27:35;;;;;;;26.60;18.88;;;;;;;18.14;65.78;100575.09;4981496;28;20109;-58
2021/07/22 00:30:19;;;;;;;22.13;17.83;;;;;;;18.13;65.73;100572.50;4995480;28;20572;-58
2021/07/22 00:33:09;;;;;;;25.27;18.90;;;;;;;18.11;65.59;100570.75;4981454;28;20081;-58
2021/07/22 00:36:05;;;;;;;27.42;19.35;;;;;;;18.09;65.81;100574.28;4981398;28;20065;-58
2021/07/22 00:38:52;;;;;;;27.88;18.45;;;;;;;18.07;65.78;100574.28;4981411;28;20120;-58
2021/07/22 00:41:41;;;;;;;23.05;17.45;;;;;;;18.04;65.87;100566.44;4981145;28;20084;-58
2021/07/22 00:44:26;;;;;;;25.80;18.75;;;;;;;18.03;65.96;100571.69;4980751;28;20077;-57
2021/07/22 00:47:10;;;;;;;26.65;19.08;;;;;;;18.02;65.80;100570.81;4981041;28;20097;-56
2021/07/22 00:50:00;;;;;;;26.65;19.15;;;;;;;18.02;65.98;100565.59;4980723;28;20065;-57
2021/07/22 00:52:45;;;;;;;26.13;18.67;;;;;;;18.02;65.82;100567.31;4980407;28;20049;-56
2021/07/22 00:55:32;;;;;;;25.45;20.25;;;;;;;18.03;66.09;100566.44;4995331;28;20512;-57
2021/07/22 00:58:16;;;;;;;28.58;19.60;;;;;;;18.04;66.01;100562.94;4980804;28;20085;-57
2021/07/22 01:01:03;;;;;;;23.95;20.58;;;;;;;18.02;66.11;100559.44;4980427;28;20049;-58
2021/07/22 01:03:52;;;;;;;30.30;21.02;;;;;;;18.03;65.88;100563.81;4979698;28;20134;-58
2021/07/22 01:06:48;;;;;;;27.08;20.20;;;;;;;18.03;65.96;100561.19;4980305;28;20053;-58
2021/07/22 01:09:42;;;;;;;26.83;21.45;;;;;;;18.02;65.99;100556.81;4980122;28;20567;-58
2021/07/22 01:12:32;;;;;;;29.83;21.90;;;;;;;18.00;65.86;100562.09;4980358;28;20045;-58
2021/07/22 01:15:21;;;;;;;29.10;22.42;;;;;;;17.99;65.98;100552.50;4980279;28;20577;-57
2021/07/22 01:18:09;;;;;;;27.48;21.08;;;;;;;18.00;66.19;100558.59;4979738;28;20045;-57
2021/07/22 01:20:53;;;;;;;29.42;20.65;;;;;;;17.98;66.07;100555.13;4980501;28;20409;-58
2021/07/22 01:23:40;;;;;;;27.23;21.52;;;;;;;17.95;66.27;100554.22;4995129;28;20045;-56
2021/07/22 01:26:35;;;;;;;31.02;22.85;;;;;;;17.92;66.31;100551.63;4979901;28;20196;-57
2021/07/22 01:29:25;;;;;;;28.23;21.45;;;;;;;17.90;66.42;100542.03;4980273;28;20108;-56
2021/07/22 01:32:14;;;;;;;31.52;21.65;;;;;;;17.87;66.38;100547.28;4979815;28;20084;-56
2021/07/22 01:35:05;;;;;;;29.33;21.48;;;;;;;17.87;66.33;100552.53;4979746;28;20535;-57
2021/07/22 01:37:55;;;;;;;27.35;21.80;;;;;;;17.83;66.30;100551.66;4979886;28;20089;-56
2021/07/22 01:40:44;;;;;;;31.50;21.85;;;;;;;17.83;66.51;100559.53;4979458;28;20053;-56
2021/07/22 01:43:34;;;;;;;32.30;22.25;;;;;;;17.80;66.23;100552.56;4979724;28;20560;-56
2021/07/22 01:46:21;;;;;;;25.27;21.48;;;;;;;17.81;66.53;100556.06;4979611;28;20045;-56
2021/07/22 01:49:05;;;;;;;27.23;21.40;;;;;;;17.79;66.40;100557.81;4979543;28;20054;-57
2021/07/22 01:51:52;;;;;;;27.67;21.83;;;;;;;17.78;66.52;100559.56;4979739;28;20046;-56
2021/07/22 01:54:41;;;;;;;28.42;22.17;;;;;;;17.78;66.12;100550.84;4979850;28;20057;-56
2021/07/22 01:57:37;;;;;;;35.88;22.77;;;;;;;17.76;66.45;100566.56;4979836;28;20552;-56
2021/07/22 02:00:21;;;;;;;26.58;21.38;;;;;;;17.75;66.32;100561.34;4994263;28;20049;-57
2021/07/22 02:03:11;;;;;;;30.98;21.02;;;;;;;17.75;66.32;100562.19;4979487;28;20085;-57
2021/07/22 02:06:06;;;;;;;30.52;22.15;;;;;;;17.74;66.38;100560.47;4994305;28;20161;-56
2021/07/22 02:09:01;;;;;;;28.60;22.40;;;;;;;17.74;66.62;100559.59;4979670;28;20104;-57
2021/07/22 02:11:49;;;;;;;30.95;22.10;;;;;;;17.74;66.41;100556.97;4979318;28;20073;-57
2021/07/22 02:14:34;;;;;;;29.40;21.58;;;;;;;17.76;66.64;100555.22;4979709;28;20112;-56
2021/07/22 02:17:19;;;;;;;26.40;22.00;;;;;;;17.75;66.76;100556.94;4979515;28;20044;-57
2021/07/22 02:20:12;;;;;;;32.78;23.63;;;;;;;17.75;66.61;100556.09;4979611;28;20053;-57
2021/07/22 02:23:01;;;;;;;29.15;21.58;;;;;;;17.75;66.62;100553.47;4993603;28;20053;-57
2021/07/22 02:25:57;;;;;;;30.17;21.73;;;;;;;17.71;66.80;100549.13;4979728;28;20637;-57
2021/07/22 02:28:41;;;;;;;26.20;22.30;;;;;;;17.71;66.71;100549.13;4979639;28;20046;-57
2021/07/22 02:31:30;;;;;;;30.35;22.73;;;;;;;17.70;66.71;100550.00;4979204;28;20527;-56
2021/07/22 02:34:20;;;;;;;31.42;23.13;;;;;;;17.69;66.32;100557.00;4978815;28;20150;-56
2021/07/22 02:37:15;;;;;;;29.65;21.95;;;;;;;17.68;66.61;100557.00;4978871;28;20045;-57
2021/07/22 02:40:08;;;;;;;26.40;21.30;;;;;;;17.67;66.80;100553.50;4979319;28;20061;-57
2021/07/22 02:42:52;;;;;;;31.67;23.02;;;;;;;17.68;66.72;100557.00;4979528;28;20053;-57
2021/07/22 02:45:37;;;;;;;27.33;22.45;;;;;;;17.67;66.76;100565.75;4993916;28;20524;-57
2021/07/22 02:48:27;;;;;;;32.03;24.45;;;;;;;17.65;66.81;100566.63;4979372;28;20068;-57
2021/07/22 02:51:17;;;;;;;26.58;20.30;;;;;;;17.65;66.61;100566.63;4979165;28;20573;-57
2021/07/22 02:54:00;;;;;;;29.98;23.20;;;;;;;17.64;66.77;100562.28;4978707;28;20158;-57
2021/07/22 02:56:50;;;;;;;34.95;24.42;;;;;;;17.62;66.79;100557.91;4994148;28;20053;-56
2021/07/22 02:59:48;;;;;;;30.60;24.23;;;;;;;17.62;66.82;100565.75;4978837;28;20101;-56
2021/07/22 03:02:32;;;;;;;33.13;23.50;;;;;;;17.59;67.13;100564.03;4978672;28;20061;-59
2021/07/22 03:05:16;;;;;;;31.38;23.25;;;;;;;17.59;66.99;100568.41;4979076;28;20517;-58
2021/07/22 03:08:01;;;;;;;35.10;23.55;;;;;;;17.58;66.85;100564.91;4979403;28;20513;-58
2021/07/22 03:10:45;;;;;;;33.67;25.27;;;;;;;17.58;66.87;100569.28;4979026;28;20073;-58
2021/07/22 03:13:29;;;;;;;33.70;25.50;;;;;;;17.57;66.91;100564.94;4979334;28;20114;-58
2021/07/22 03:16:13;;;;;;;33.55;24.77;;;;;;;17.55;67.00;100557.06;4979255;28;20098;-58
2021/07/22 03:18:57;;;;;;;33.88;26.13;;;;;;;17.54;66.83;100551.84;4979109;28;20077;-56
2021/07/22 03:21:41;;;;;;;31.20;24.38;;;;;;;17.51;67.01;100552.72;4979091;28;20084;-56
2021/07/22 03:24:33;;;;;;;32.42;25.85;;;;;;;17.48;66.95;100552.75;4993222;28;20089;-57
2021/07/22 03:27:17;;;;;;;34.80;25.98;;;;;;;17.49;66.98;100549.25;4979616;28;20049;-58
2021/07/22 03:30:04;;;;;;;31.95;25.90;;;;;;;17.47;67.01;100544.00;4981991;28;20608;-56
2021/07/22 03:32:48;;;;;;;30.88;24.83;;;;;;;17.46;66.95;100544.88;4982077;28;20085;-56
2021/07/22 03:35:32;;;;;;;38.63;27.13;;;;;;;17.44;67.06;100545.75;4982062;28;20049;-57
2021/07/22 03:38:15;;;;;;;34.78;26.73;;;;;;;17.44;66.91;100551.00;4982387;28;20130;-58
2021/07/22 03:40:59;;;;;;;32.10;25.67;;;;;;;17.41;66.94;100548.38;4982048;28;20077;-58
2021/07/22 03:43:49;;;;;;;33.40;26.13;;;;;;;17.40;67.10;100551.88;4982038;28;20096;-58
2021/07/22 03:46:39;;;;;;;33.78;26.45;;;;;;;17.39;67.00;100548.41;4981986;28;20069;-58
2021/07/22 03:49:23;;;;;;;37.22;28.80;;;;;;;17.40;66.97;100549.25;4981816;28;20052;-58
2021/07/22 03:52:10;;;;;;;37.88;27.38;;;;;;;17.37;67.03;100551.88;4981505;28;20418;-58
2021/07/22 03:54:54;;;;;;;35.78;27.88;;;;;;;17.37;67.39;100546.66;4981656;28;20513;-58
2021/07/22 03:57:43;;;;;;;45.40;28.08;;;;;;;17.34;67.10;100551.06;4981890;28;20077;-58
2021/07/22 04:00:27;;;;;;;38.75;28.58;;;;;;;17.33;67.00;100549.31;4981728;28;20052;-58
2021/07/22 04:03:21;;;;;;;;;;;;;;;17.31;66.80;100547.53;4981699;28;20422;-58
2021/07/22 04:06:05;;;;;;;37.25;28.10;;;;;;;17.30;67.06;100551.94;4982128;28;20008;-58
2021/07/22 04:08:49;;;;;;;41.22;29.33;;;;;;;17.29;67.14;100557.16;4981998;28;20061;-58
2021/07/22 04:11:38;;;;;;;40.17;28.58;;;;;;;17.28;66.88;100556.31;4996291;28;20130;-58
2021/07/22 04:14:28;;;;;;;39.13;28.55;;;;;;;17.28;67.10;100560.69;4981637;28;20407;-58
2021/07/22 04:17:18;;;;;;;38.47;26.67;;;;;;;17.27;67.15;100557.19;4981619;28;20045;-58
2021/07/22 04:20:08;;;;;;;36.45;26.80;;;;;;;17.26;67.09;100554.56;4981441;28;20129;-58
2021/07/22 04:23:04;;;;;;;40.17;28.98;;;;;;;17.24;67.15;100559.81;4981150;28;20044;-58
2021/07/22 04:25:54;;;;;;;40.50;29.73;;;;;;;17.24;67.00;100561.56;4981581;28;20564;-58
2021/07/22 04:28:44;;;;;;;36.38;27.83;;;;;;;17.24;66.97;100565.03;4981026;28;20040;-58
2021/07/22 04:31:28;;;;;;;41.85;29.50;;;;;;;17.24;66.88;100559.81;4980963;28;20041;-58
2021/07/22 04:34:17;;;;;;;39.25;28.23;;;;;;;17.23;67.26;100560.69;4980984;28;20520;-58
2021/07/22 04:37:07;;;;;;;44.85;28.90;;;;;;;17.23;67.23;100560.69;4981616;28;20061;-57
2021/07/22 04:39:57;;;;;;;48.15;28.38;;;;;;;17.25;67.10;100555.44;4980160;28;20097;-58
2021/07/22 04:42:46;;;;;;;57.70;30.88;;;;;;;17.24;67.22;100559.81;4981343;28;20053;-58
2021/07/22 04:45:36;;;;;;;44.92;30.50;;;;;;;17.24;67.18;100556.31;4995421;28;20116;-58
2021/07/22 04:48:25;;;;;;;45.47;30.38;;;;;;;17.24;67.19;100557.19;4980631;28;20097;-56
2021/07/22 04:51:15;;;;;;;45.10;29.70;;;;;;;17.24;67.18;100558.94;4980707;28;20053;-57
2021/07/22 04:54:04;;;;;;;47.80;30.40;;;;;;;17.25;67.21;100563.31;4981061;28;20109;-56
2021/07/22 04:56:51;;;;;;;50.88;32.03;;;;;;;17.25;67.21;100565.94;4980697;28;20525;-56
2021/07/22 04:59:35;;;;;;;42.50;31.00;;;;;;;17.25;67.25;100564.16;4980423;28;20133;-57
2021/07/22 05:02:24;;;;;;;38.60;29.88;;;;;;;17.26;67.06;100575.53;4980376;28;20457;-56
2021/07/22 05:05:17;;;;;;;35.53;29.25;;;;;;;17.25;67.01;100568.53;4994661;28;20041;-57
2021/07/22 05:08:07;;;;;;;41.90;29.85;;;;;;;17.25;67.20;100569.41;4980236;28;20132;-58
2021/07/22 05:10:57;;;;;;;42.97;29.48;;;;;;;17.26;67.33;100571.16;4980494;28;20042;-56
2021/07/22 05:13:48;;;;;;;43.47;31.42;;;;;;;17.28;67.39;100573.78;4980225;28;20614;-58
2021/07/22 05:16:37;;;;;;;40.10;29.75;;;;;;;17.29;67.49;100575.50;4980345;28;20438;-58
2021/07/22 05:19:27;;;;;;;44.33;31.05;;;;;;;17.30;67.26;100564.13;4980622;28;20053;-58
2021/07/22 05:22:11;;;;;;;41.90;30.27;;;;;;;17.32;67.65;100578.09;4979914;28;20104;-58
2021/07/22 05:24:55;;;;;;;39.75;29.73;;;;;;;17.32;67.56;100571.13;4980673;28;20072;-58
2021/07/22 05:27:39;;;;;;;46.08;29.77;;;;;;;17.34;67.51;100576.34;4980237;28;20536;-58
2021/07/22 05:30:28;;;;;;;38.65;28.00;;;;;;;17.35;67.42;100572.88;4980268;28;20073;-58
2021/07/22 05:33:21;;;;;;;46.22;29.65;;;;;;;17.37;67.60;100571.13;4979506;28;20084;-58
2021/07/22 05:36:07;;;;;;;42.08;30.63;;;;;;;17.39;67.80;100569.38;4980079;28;20049;-58
2021/07/22 05:38:56;;;;;;;42.50;29.88;;;;;;;17.40;67.66;100564.97;4979536;28;20077;-57
2021/07/22 05:41:46;;;;;;;43.38;30.42;;;;;;;17.43;67.51;100562.34;4994588;28;20052;-56
2021/07/22 05:44:35;;;;;;;43.55;31.65;;;;;;;17.46;67.53;100575.44;4980000;28;20536;-56
2021/07/22 05:47:19;;;;;;;46.25;33.30;;;;;;;17.45;67.74;100574.56;4979581;28;20066;-56
2021/07/22 05:50:03;;;;;;;40.83;30.30;;;;;;;17.46;67.68;100576.31;4979793;28;20132;-56
2021/07/22 05:52:47;;;;;;;;;;;;;;;17.47;67.63;100569.34;4980303;28;20088;-56
2021/07/22 05:55:37;;;;;;;47.38;32.15;;;;;;;17.49;67.92;100570.19;4994039;28;19964;-56
2021/07/22 05:58:26;;;;;;;42.30;31.00;;;;;;;17.54;68.01;100576.28;4979900;28;20108;-56
2021/07/22 06:01:11;;;;;;;52.40;33.33;;;;;;;17.54;67.80;100573.66;4979045;28;20073;-57
2021/07/22 06:03:55;;;;;;;45.25;33.25;;;;;;;17.57;67.96;100570.16;4979538;28;20120;-56
2021/07/22 06:06:45;;;;;;;;;;;;;;;17.58;67.79;100575.41;4980140;28;20061;-57
2021/07/22 06:09:29;;;;;;;51.63;33.78;;;;;;;17.61;68.02;100572.75;4979524;28;20331;-56
2021/07/22 06:12:13;;;;;;;54.03;34.60;;;;;;;17.63;68.17;100581.50;4979664;28;20045;-56
2021/07/22 06:14:57;;;;;;;46.75;34.85;;;;;;;17.67;68.23;100568.38;4994442;28;20089;-58
2021/07/22 06:17:41;;;;;;;49.92;34.13;;;;;;;17.70;68.17;100570.97;4979614;28;20054;-58
2021/07/22 06:20:30;;;;;;;51.15;36.50;;;;;;;17.72;68.27;100571.81;4979394;28;20112;-58
2021/07/22 06:23:22;;;;;;;47.28;34.42;;;;;;;17.75;68.23;100572.69;4979097;28;20052;-58
2021/07/22 06:26:06;;;;;;;47.05;34.38;;;;;;;17.77;68.25;100570.91;4979314;28;20154;-58
2021/07/22 06:28:53;;;;;;;45.20;32.85;;;;;;;17.78;68.41;100577.06;4979422;28;20504;-58
2021/07/22 06:31:40;;;;;;;46.10;32.33;;;;;;;17.80;68.34;100580.53;4979539;28;20042;-58
2021/07/22 06:34:27;;;;;;;43.03;31.63;;;;;;;17.80;68.27;100573.53;4979618;28;20456;-58
2021/07/22 06:37:13;;;;;;;43.42;31.17;;;;;;;17.81;68.31;100577.03;4979446;28;20046;-58
2021/07/22 06:39:58;;;;;;;45.25;30.55;;;;;;;17.81;68.05;100577.91;4978979;28;20480;-57
2021/07/22 06:42:51;;;;;;;39.38;28.80;;;;;;;17.81;67.99;100577.91;4978910;28;20096;-57
2021/07/22 06:45:35;;;;;;;42.78;28.65;;;;;;;17.81;67.97;100580.53;4979138;28;20054;-57
2021/07/22 06:48:23;;;;;;;41.95;29.63;;;;;;;17.81;67.86;100580.53;4978663;28;20053;-57
2021/07/22 06:51:10;;;;;;;41.50;28.45;;;;;;;17.84;67.97;100581.38;4979307;28;20053;-57
2021/07/22 06:53:54;;;;;;;41.15;28.40;;;;;;;17.85;67.80;100584.00;4978985;28;20522;-57
2021/07/22 06:56:38;;;;;;;;;;;;;;;17.85;67.50;100580.50;4979758;28;20188;-57
2021/07/22 06:59:22;;;;;;;41.47;28.38;;;;;;;17.87;67.87;100584.00;4979131;28;20004;-56
2021/07/22 07:02:06;;;;;;;39.58;26.50;;;;;;;17.90;67.98;100584.84;4993249;28;20065;-58
2021/07/22 07:04:50;;;;;;;37.00;27.05;;;;;;;17.91;67.75;100583.06;4982409;28;20540;-57
2021/07/22 07:07:35;;;;;;;41.13;28.38;;;;;;;17.93;67.86;100582.22;4983288;28;20560;-58
2021/07/22 07:10:19;;;;;;;43.30;28.17;;;;;;;17.96;67.98;100583.94;4982779;28;20045;-58
2021/07/22 07:13:09;;;;;;;41.45;27.17;;;;;;;17.96;67.67;100579.56;4982382;28;20050;-59
2021/07/22 07:16:01;;;;;;;40.35;27.38;;;;;;;17.99;67.86;100580.44;4982790;28;20137;-58
2021/07/22 07:18:46;;;;;;;42.85;27.95;;;;;;;18.03;67.80;100584.81;4982530;28;20613;-57
2021/07/22 07:21:40;;;;;;;39.38;28.65;;;;;;;18.04;67.76;100579.56;4982782;28;20140;-58
2021/07/22 07:24:29;;;;;;;40.15;26.75;;;;;;;18.06;67.77;100585.63;4982531;28;20044;-58
2021/07/22 07:27:22;;;;;;;39.20;27.70;;;;;;;18.08;67.82;100583.03;4982275;28;20134;-58
2021/07/22 07:30:08;;;;;;;42.75;27.73;;;;;;;18.10;67.87;100586.50;4981764;28;20097;-59
2021/07/22 07:32:56;;;;;;;41.38;28.77;;;;;;;18.11;67.71;100586.50;4982318;28;20100;-58
2021/07/22 07:35:46;;;;;;;44.42;28.35;;;;;;;18.13;67.93;100590.84;4996866;28;20172;-58
2021/07/22 07:38:36;;;;;;;40.88;28.33;;;;;;;18.16;67.83;100588.22;4982375;28;20077;-58
2021/07/22 07:41:29;;;;;;;44.33;29.17;;;;;;;18.15;67.66;100582.09;4981988;28;20129;-58
2021/07/22 07:44:18;;;;;;;39.08;28.50;;;;;;;18.16;67.43;100581.22;4982364;28;20457;-58
2021/07/22 07:47:08;;;;;;;41.42;28.15;;;;;;;18.17;67.68;100577.72;4981781;28;20049;-58
2021/07/22 07:49:58;;;;;;;39.83;26.35;;;;;;;18.17;67.45;100579.47;4996341;28;20097;-58
2021/07/22 07:52:43;;;;;;;38.53;27.05;;;;;;;18.18;67.78;100576.81;4982128;28;20072;-58
2021/07/22 07:55:28;;;;;;;41.50;27.02;;;;;;;18.19;67.26;100575.94;4981903;28;20494;-59
2021/07/22 07:58:15;;;;;;;38.83;26.33;;;;;;;18.20;67.43;100575.06;4996629;28;20053;-59
2021/07/22 08:01:10;;;;;;;34.53;25.40;;;;;;;18.21;67.29;100571.56;4982136;28;20064;-58
2021/07/22 08:03:59;;;;;;;36.67;25.65;;;;;;;18.23;67.17;100579.41;4982154;28;20050;-58
2021/07/22 08:06:46;;;;;;;35.20;24.48;;;;;;;18.25;67.28;100575.03;4996089;28;20088;-58
2021/07/22 08:09:39;;;;;;;36.75;24.10;;;;;;;18.27;67.12;100573.28;4996115;28;20449;-58
2021/07/22 08:12:31;;;;;;;32.30;24.52;;;;;;;18.30;67.02;100567.13;4981812;28;20098;-58
2021/07/22 08:15:20;;;;;;;32.17;24.10;;;;;;;18.32;67.08;100575.84;4996317;28;20448;-58
2021/07/22 08:18:11;;;;;;;39.85;25.60;;;;;;;18.33;67.24;100575.84;4981048;28;20049;-58
2021/07/22 08:20:55;;;;;;;33.65;24.88;;;;;;;18.33;67.07;100574.97;4996132;28;20145;-58
2021/07/22 08:23:45;;;;;;;37.15;24.08;;;;;;;18.36;66.90;100569.72;4996174;28;20056;-58
2021/07/22 08:26:35;;;;;;;34.60;24.98;;;;;;;18.36;67.05;100562.72;4996034;28;20559;-58
2021/07/22 08:29:27;;;;;;;36.40;25.80;;;;;;;18.39;66.94;100565.28;4981524;28;20516;-58
2021/07/22 08:32:20;;;;;;;33.22;25.05;;;;;;;18.41;67.03;100563.53;4981179;28;20560;-58
2021/07/22 08:35:08;;;;;;;32.97;25.08;;;;;;;18.44;67.04;100557.41;4981404;28;20050;-58
2021/07/22 08:37:55;;;;;;;36.17;25.23;;;;;;;18.48;67.13;100555.63;4981403;28;20109;-58
2021/07/22 08:40:48;;;;;;;37.47;26.33;;;;;;;18.51;66.84;100559.09;4981020;28;20060;-58
2021/07/22 08:43:37;;;;;;;31.45;23.23;;;;;;;18.55;66.90;100563.44;4980984;28;20546;-58
2021/07/22 08:46:29;;;;;;;36.67;25.08;;;;;;;18.59;66.85;100560.78;4981297;28;20053;-58
2021/07/22 08:49:16;;;;;;;35.63;25.23;;;;;;;18.62;66.83;100561.63;4981078;28;20081;-58
2021/07/22 08:52:04;;;;;;;31.90;24.63;;;;;;;18.63;66.68;100563.38;4981060;28;20057;-58
2021/07/22 08:54:54;;;;;;;35.85;25.08;;;;;;;18.65;66.55;100558.09;4994483;28;20429;-58
2021/07/22 08:57:40;;;;;;;31.77;23.63;;;;;;;18.67;66.63;100556.31;4981000;28;20120;-58
2021/07/22 09:00:29;;;;;;;33.78;23.85;;;;;;;18.70;66.41;100559.78;4995395;28;20053;-58
2021/07/22 09:03:13;;;;;;;34.70;24.15;;;;;;;18.72;66.54;100552.75;4995462;28;20134;-58
2021/07/22 09:05:57;;;;;;;34.97;25.38;;;;;;;18.75;66.52;100549.25;4980657;28;20053;-58
2021/07/22 09:08:41;;;;;;;34.83;25.10;;;;;;;18.78;66.46;100545.72;4980773;28;20425;-58
2021/07/22 09:11:26;;;;;;;30.55;23.05;;;;;;;18.81;66.49;100545.69;4980651;28;20049;-58
2021/07/22 09:14:17;;;;;;;31.15;23.70;;;;;;;18.84;66.42;100546.53;4995461;28;20112;-58
2021/07/22 09:17:04;;;;;;;39.80;23.80;;;;;;;18.87;66.44;100543.00;4995157;28;20054;-58
2021/07/22 09:19:48;;;;;;;32.65;23.40;;;;;;;18.90;66.60;100550.00;4980508;28;20053;-58
2021/07/22 09:22:40;;;;;;;29.73;22.10;;;;;;;18.93;66.37;100555.19;4994508;28;20417;-58
2021/07/22 09:25:48;;;;;;;29.15;21.20;;;;;;;18.97;66.38;100554.31;4994170;28;20157;-58
2021/07/22 09:28:35;;;;;;;29.27;21.13;;;;;;;18.98;66.39;100556.94;4980482;28;20092;-58
2021/07/22 09:31:31;;;;;;;29.55;20.77;;;;;;;19.00;66.60;100549.88;4980109;28;20073;-59
2021/07/22 09:34:25;;;;;;;25.05;19.67;;;;;;;19.01;66.39;100559.50;4994461;28;20053;-58
2021/07/22 09:37:16;;;;;;;29.13;19.35;;;;;;;19.04;66.15;100552.47;4980174;28;20049;-58
2021/07/22 09:40:01;;;;;;;24.85;17.63;;;;;;;19.05;66.15;100549.84;4980009;28;20053;-58
2021/07/22 09:42:49;;;;;;;23.55;18.48;;;;;;;19.07;66.14;100555.06;4980094;28;20116;-58
2021/07/22 09:45:49;;;;;;;26.35;17.80;;;;;;;19.10;66.09;100553.28;4994410;28;20058;-58
2021/07/22 09:48:38;;;;;;;25.05;17.77;;;;;;;19.13;66.15;100555.88;4980049;28;20057;-58
2021/07/22 09:51:32;;;;;;;26.40;18.58;;;;;;;19.17;66.35;100560.22;4994109;28;20065;-58
2021/07/22 09:54:19;;;;;;;23.13;17.52;;;;;;;19.16;65.94;100554.97;4980083;28;20084;-59
2021/07/22 09:57:13;;;;;;;26.17;17.75;;;;;;;19.16;66.15;100547.97;4994562;28;20393;-58
2021/07/22 09:59:57;;;;;;;25.75;18.00;;;;;;;19.15;66.00;100551.47;4979564;28;20056;-58
2021/07/22 10:02:41;;;;;;;26.50;18.60;;;;;;;19.19;65.59;100559.34;4994257;28;20061;-58
2021/07/22 10:05:37;;;;;;;23.00;18.15;;;;;;;19.21;65.98;100550.53;4979751;28;20049;-57
2021/07/22 10:08:25;;;;;;;26.48;18.88;;;;;;;19.24;65.94;100555.75;4979870;28;20049;-57
2021/07/22 10:11:12;;;;;;;27.85;17.52;;;;;;;19.28;65.87;100552.22;4979031;28;20142;-57
2021/07/22 10:14:02;;;;;;;23.30;17.77;;;;;;;19.30;65.98;100550.44;4979843;28;20061;-58
2021/07/22 10:16:54;;;;;;;27.13;18.58;;;;;;;19.31;66.08;100546.03;4979517;28;20069;-58
2021/07/22 10:19:38;;;;;;;24.77;19.17;;;;;;;19.33;65.97;100545.13;4979466;28;20181;-58
2021/07/22 10:22:23;;;;;;;26.70;18.45;;;;;;;19.37;65.70;100539.84;4994666;28;20145;-58
2021/07/22 10:25:11;;;;;;;29.15;19.52;;;;;;;19.37;65.97;100535.47;4979489;28;20053;-58
2021/07/22 10:27:59;;;;;;;31.17;20.25;;;;;;;19.40;65.78;100535.41;4994296;28;20129;-58
2021/07/22 10:30:50;;;;;;;27.73;20.98;;;;;;;19.43;65.87;100532.75;4979125;28;20097;-58
2021/07/22 10:33:43;;;;;;;27.85;19.02;;;;;;;19.45;65.80;100530.97;4979820;28;20531;-58
2021/07/22 10:36:30;;;;;;;26.83;19.88;;;;;;;19.45;65.56;100533.59;4979746;28;20157;-58
2021/07/22 10:39:53;;;;;;;31.20;19.10;;;;;;;19.47;65.73;100530.94;4983606;28;20053;-58
2021/07/22 10:42:45;;;;;;;28.77;20.52;;;;;;;19.47;65.67;100523.94;4997733;28;20073;-58
2021/07/22 10:45:30;;;;;;;25.85;19.20;;;;;;;19.50;65.84;100515.13;4983564;28;20453;-58
2021/07/22 10:48:25;;;;;;;23.02;17.02;;;;;;;19.53;65.86;100517.72;4997810;28;20414;-58
2021/07/22 10:51:16;;;;;;;27.33;19.42;;;;;;;19.56;65.86;100517.69;4983250;28;20524;-58
2021/07/22 10:54:06;;;;;;;25.00;18.60;;;;;;;19.57;65.91;100513.28;4983060;28;20081;-58
2021/07/22 10:56:56;;;;;;;25.33;16.75;;;;;;;19.61;65.62;100510.63;4997721;28;20084;-58
2021/07/22 11:00:01;;;;;;;21.75;15.82;;;;;;;19.65;65.69;100514.06;4997497;28;20070;-57
2021/07/22 11:02:54;;;;;;;20.65;16.67;;;;;;;19.66;65.68;100517.56;4997536;28;20136;-56
2021/07/22 11:05:47;;;;;;;22.50;15.70;;;;;;;19.68;65.74;100505.25;4982750;28;20041;-58
2021/07/22 11:08:41;;;;;;;20.63;14.98;;;;;;;19.69;65.70;100504.38;4983010;28;20062;-56
2021/07/22 11:11:47;;;;;;;;;;;;;;;19.71;65.72;100502.59;4997560;28;20081;-56
2021/07/22 11:14:34;;;;;;;26.83;17.50;;;;;;;19.71;65.87;100503.44;4982803;28;19964;-58
2021/07/22 11:17:30;;;;;;;28.08;17.33;;;;;;;19.73;65.83;100506.91;4997396;28;20040;-57
2021/07/22 11:20:29;;;;;;;22.17;16.10;;;;;;;19.74;65.75;100499.91;4982777;28;20081;-57
2021/07/22 11:23:16;;;;;;;23.10;16.70;;;;;;;19.74;65.51;100498.16;4982520;28;20053;-57
2021/07/22 11:26:09;;;;;;;23.23;16.17;;;;;;;19.75;65.69;100484.09;4996933;28;20108;-58
2021/07/22 11:28:55;;;;;;;21.63;15.65;;;;;;;19.75;65.67;100489.38;4996964;28;20089;-57
2021/07/22 11:31:48;;;;;;;21.30;14.38;;;;;;;19.75;65.77;100485.88;4996936;28;20081;-58
2021/07/22 11:34:39;;;;;;;22.08;14.40;;;;;;;19.76;65.75;100490.25;4996856;28;20053;-58
2021/07/22 11:37:25;;;;;;;20.90;14.82;;;;;;;19.80;65.77;100486.66;4981760;28;20568;-58
2021/07/22 11:40:13;;;;;;;23.58;15.15;;;;;;;19.83;65.96;100486.63;4996875;28;20092;-58
2021/07/22 11:42:58;;;;;;;22.90;15.93;;;;;;;19.86;65.81;100486.59;4997129;28;20121;-58
2021/07/22 11:45:45;;;;;;;25.55;16.73;;;;;;;19.90;65.82;100487.44;4996531;28;20111;-58
2021/07/22 11:48:34;;;;;;;23.02;16.15;;;;;;;19.92;65.76;100475.13;4981548;28;20073;-58
2021/07/22 11:51:27;;;;;;;28.50;17.00;;;;;;;19.97;65.63;100477.69;4996731;28;20077;-58
2021/07/22 11:54:18;;;;;;;20.00;14.65;;;;;;;19.97;65.84;100482.94;4982292;28;20100;-58
2021/07/22 11:57:05;;;;;;;19.58;14.90;;;;;;;19.96;65.66;100479.44;4982198;28;20129;-58
2021/07/22 11:59:58;;;;;;;21.63;15.77;;;;;;;19.93;65.51;100472.47;4996521;28;20398;-57
2021/07/22 12:02:52;;;;;;;23.38;16.35;;;;;;;19.93;65.62;100472.47;4981363;28;20115;-57
2021/07/22 12:05:37;;;;;;;18.98;14.07;;;;;;;19.94;65.68;100470.72;4996252;28;20105;-57
2021/07/22 12:08:21;;;;;;;19.35;14.90;;;;;;;19.94;65.57;100462.81;4996656;28;20078;-56
2021/07/22 12:11:05;;;;;;;19.58;13.82;;;;;;;19.95;65.50;100467.19;4996022;28;20124;-57
2021/07/22 12:13:54;;;;;;;17.75;13.98;;;;;;;19.96;65.62;100460.16;4981566;28;20418;-57
2021/07/22 12:16:44;;;;;;;20.00;14.63;;;;;;;19.95;65.10;100461.94;4981050;28;20057;-56
2021/07/22 12:19:37;;;;;;;19.92;13.90;;;;;;;19.95;65.60;100464.56;4996128;28;20517;-58
2021/07/22 12:22:37;;;;;;;18.15;13.65;;;;;;;19.96;65.57;100458.41;4981448;28;20085;-58
2021/07/22 12:25:30;;;;;;;17.85;13.00;;;;;;;19.97;65.60;100456.63;4981697;28;20402;-57
2021/07/22 12:28:23;;;;;;;17.05;12.18;;;;;;;19.99;65.67;100453.09;4996358;28;20073;-57
2021/07/22 12:31:21;;;;;;;19.75;14.15;;;;;;;19.99;65.48;100447.84;4995448;28;20092;-57
2021/07/22 12:34:06;;;;;;;17.92;13.52;;;;;;;20.00;65.35;100453.97;4995495;28;20116;-58
2021/07/22 12:36:51;;;;;;;18.17;13.27;;;;;;;20.00;65.55;100452.22;4995560;28;20136;-58
2021/07/22 12:39:43;;;;;;;14.93;11.88;;;;;;;20.00;65.27;100457.47;4981132;28;20101;-59
2021/07/22 12:42:35;;;;;;;16.15;11.95;;;;;;;19.98;65.63;100448.72;4996062;28;20124;-58
2021/07/22 12:45:25;;;;;;;16.10;12.70;;;;;;;19.99;65.30;100446.97;4981359;28;20077;-58
2021/07/22 12:48:18;;;;;;;18.58;12.07;;;;;;;19.99;65.44;100434.69;4995628;28;20096;-58
2021/07/22 12:51:11;;;;;;;17.48;12.88;;;;;;;20.03;65.36;100435.50;4980691;28;20049;-58